Aérodrome :
LOGIN :

S'inscrire | Disclaimer

   EN    FR    IT 

 










Légende :    VFR   VFR Marginal   IFR   IFR Intensif   IFR Très Intensif
Visi : 
Plafond : 
>= 8 km
>= 3000ft
5 à 8 km
1000 à 3000 ft
1500m à 5 km
500 à 1000 ft
800 à 1500m
200 à 500 ft
< 800m
< 200 ft
Symboles :   Orages  Brouillard  Fortes neiges  Fortes précipitations  Vent > 20 kt
SIGMETs :   Divers  Orages  Givrage  Turbulence  Onde Orograph.  Cendres Volcan.






- Altitude de l'aérodrome : 1106 ft


LFSO - Nancy / Ochey

DERNIER METAR :
  • 050700Z AUTO VRB02KT CAVOK 20/10 Q1019 NOSIG

METARs EXPIRÉS :
  • 050630Z AUTO VRB02KT CAVOK 18/09 Q1019 NOSIG
  • 050600Z AUTO 00000KT CAVOK 17/10 Q1019 BECMG 09010KT
  • 050530Z AUTO 19002KT CAVOK 15/09 Q1018 BECMG 09010KT
  • 050500Z AUTO 20004KT CAVOK 14/08 Q1018
  • 050430Z AUTO 16006KT CAVOK 13/08 Q1018

TAF AMD TAF LFSO
Valide du 05 à 04h jusqu'au 06 à 03h UTC


050445Z 0504/0603 16005KT CAVOK
BECMG 0507/0509 09010KT



MET'MAP, la Météo Aéronautique d'un coup d'oeil ! - Copyright ORBIFLY Décembre 2007 - Disclaimer

ORBIFLY MET'MAP TEAM :

Programmation & Développement : Alexandra Zaïnal
Sur une idée originale de : Baudouin d'Aumeries
Assistance à la programmation : Marc-Olivier Méhu
Soutien technique & logistique : Manuel Goepfert

Contact : metmap@orbifly.com




SOURCES & CREDITS :

   NOAA